sensor_id;sensor_type;location;lat;lon;timestamp;pressure;altitude;pressure_sealevel;temperature;humidity
51297;BME280;37380;45.186;9.792;2023-08-06T00:01:20;100037.19;;;19.93;100.00
51297;BME280;37380;45.186;9.792;2023-08-06T00:03:49;100029.13;;;19.97;100.00
51297;BME280;37380;45.186;9.792;2023-08-06T00:06:16;100029.22;;;19.91;100.00
51297;BME280;37380;45.186;9.792;2023-08-06T00:08:43;100032.00;;;19.82;100.00
51297;BME280;37380;45.186;9.792;2023-08-06T00:11:13;100022.50;;;19.65;100.00
51297;BME280;37380;45.186;9.792;2023-08-06T00:13:40;100026.03;;;19.67;100.00
51297;BME280;37380;45.186;9.792;2023-08-06T00:16:11;100019.91;;;19.61;100.00
51297;BME280;37380;45.186;9.792;2023-08-06T00:18:39;100014.69;;;19.52;100.00
51297;BME280;37380;45.186;9.792;2023-08-06T00:21:06;100013.88;;;19.48;100.00
51297;BME280;37380;45.186;9.792;2023-08-06T00:23:40;100024.28;;;19.63;100.00
51297;BME280;37380;45.186;9.792;2023-08-06T00:26:40;100018.84;;;19.76;100.00
51297;BME280;37380;45.186;9.792;2023-08-06T00:29:41;100014.47;;;19.73;100.00
51297;BME280;37380;45.186;9.792;2023-08-06T00:32:42;100016.06;;;19.85;100.00
51297;BME280;37380;45.186;9.792;2023-08-06T00:35:44;100029.28;;;19.88;100.00
51297;BME280;37380;45.186;9.792;2023-08-06T00:38:38;100021.59;;;19.68;100.00
51297;BME280;37380;45.186;9.792;2023-08-06T00:41:05;100026.03;;;19.64;100.00
51297;BME280;37380;45.186;9.792;2023-08-06T00:43:39;100023.47;;;19.57;100.00
51297;BME280;37380;45.186;9.792;2023-08-06T00:46:40;100024.56;;;19.40;100.00
51297;BME280;37380;45.186;9.792;2023-08-06T00:49:41;100027.38;;;19.27;100.00
51297;BME280;37380;45.186;9.792;2023-08-06T00:52:35;100017.59;;;19.35;100.00
51297;BME280;37380;45.186;9.792;2023-08-06T00:55:04;100013.03;;;19.43;100.00
51297;BME280;37380;45.186;9.792;2023-08-06T00:57:32;100011.31;;;19.42;100.00
51297;BME280;37380;45.186;9.792;2023-08-06T00:59:59;100011.34;;;19.39;100.00
51297;BME280;37380;45.186;9.792;2023-08-06T01:02:27;100007.53;;;19.61;100.00
51297;BME280;37380;45.186;9.792;2023-08-06T01:04:55;100004.34;;;19.33;100.00
51297;BME280;37380;45.186;9.792;2023-08-06T01:14:53;100012.03;;;19.52;100.00
51297;BME280;37380;45.186;9.792;2023-08-06T01:17:24;100006.75;;;19.53;100.00
51297;BME280;37380;45.186;9.792;2023-08-06T01:19:54;100013.69;;;19.66;100.00
51297;BME280;37380;45.186;9.792;2023-08-06T01:22:21;100018.84;;;19.76;100.00
51297;BME280;37380;45.186;9.792;2023-08-06T01:24:55;100019.84;;;19.67;100.00
51297;BME280;37380;45.186;9.792;2023-08-06T01:27:56;100018.22;;;19.54;100.00
51297;BME280;37380;45.186;9.792;2023-08-06T01:31:02;100018.41;;;19.37;100.00
51297;BME280;37380;45.186;9.792;2023-08-06T01:34:05;100015.84;;;19.31;100.00
51297;BME280;37380;45.186;9.792;2023-08-06T01:37:07;100014.59;;;19.59;100.00
51297;BME280;37380;45.186;9.792;2023-08-06T01:40:05;100022.88;;;19.33;100.00
51297;BME280;37380;45.186;9.792;2023-08-06T01:42:32;100014.94;;;19.33;100.00
51297;BME280;37380;45.186;9.792;2023-08-06T01:44:59;100014.03;;;19.36;100.00
51297;BME280;37380;45.186;9.792;2023-08-06T01:47:27;100009.69;;;19.32;100.00
51297;BME280;37380;45.186;9.792;2023-08-06T01:49:54;100007.91;;;19.31;100.00
51297;BME280;37380;45.186;9.792;2023-08-06T01:52:21;100006.91;;;19.41;100.00
51297;BME280;37380;45.186;9.792;2023-08-06T01:54:48;100015.38;;;19.71;100.00
51297;BME280;37380;45.186;9.792;2023-08-06T01:57:15;100000.50;;;19.59;100.00
51297;BME280;37380;45.186;9.792;2023-08-06T01:59:42;99996.28;;;19.44;100.00
51297;BME280;37380;45.186;9.792;2023-08-06T02:02:09;99998.16;;;19.33;100.00
51297;BME280;37380;45.186;9.792;2023-08-06T02:04:36;99985.63;;;19.47;100.00
51297;BME280;37380;45.186;9.792;2023-08-06T02:07:04;99981.91;;;19.60;100.00
51297;BME280;37380;45.186;9.792;2023-08-06T02:09:31;99980.16;;;19.59;100.00
51297;BME280;37380;45.186;9.792;2023-08-06T02:11:59;99975.16;;;19.38;100.00
51297;BME280;37380;45.186;9.792;2023-08-06T02:14:27;99978.13;;;19.12;100.00
51297;BME280;37380;45.186;9.792;2023-08-06T02:16:54;99988.88;;;18.99;100.00
51297;BME280;37380;45.186;9.792;2023-08-06T02:19:24;99987.78;;;19.16;100.00
51297;BME280;37380;45.186;9.792;2023-08-06T02:21:51;99992.03;;;19.29;100.00
51297;BME280;37380;45.186;9.792;2023-08-06T02:24:24;99990.31;;;19.27;100.00
51297;BME280;37380;45.186;9.792;2023-08-06T02:27:25;99990.66;;;18.97;100.00
51297;BME280;37380;45.186;9.792;2023-08-06T02:30:26;99980.97;;;18.93;100.00
51297;BME280;37380;45.186;9.792;2023-08-06T02:33:27;99993.25;;;18.99;100.00
51297;BME280;37380;45.186;9.792;2023-08-06T02:36:28;99987.09;;;19.00;100.00
51297;BME280;37380;45.186;9.792;2023-08-06T02:39:23;99991.44;;;19.04;100.00
51297;BME280;37380;45.186;9.792;2023-08-06T02:41:50;99986.16;;;19.06;100.00
51297;BME280;37380;45.186;9.792;2023-08-06T02:44:18;99978.84;;;19.25;100.00
51297;BME280;37380;45.186;9.792;2023-08-06T02:46:45;99977.31;;;19.05;100.00
51297;BME280;37380;45.186;9.792;2023-08-06T02:49:12;99988.69;;;19.13;100.00
51297;BME280;37380;45.186;9.792;2023-08-06T02:51:39;99990.09;;;19.42;100.00
51297;BME280;37380;45.186;9.792;2023-08-06T02:54:06;99989.19;;;19.43;100.00
51297;BME280;37380;45.186;9.792;2023-08-06T02:56:35;99994.44;;;19.49;100.00
51297;BME280;37380;45.186;9.792;2023-08-06T02:59:10;99993.50;;;19.55;100.00
51297;BME280;37380;45.186;9.792;2023-08-06T03:01:53;99993.41;;;19.61;100.00
51297;BME280;37380;45.186;9.792;2023-08-06T03:05:03;99980.56;;;19.29;100.00
51297;BME280;37380;45.186;9.792;2023-08-06T03:08:05;99960.06;;;19.43;100.00
51297;BME280;37380;45.186;9.792;2023-08-06T03:11:06;99954.66;;;19.52;100.00
51297;BME280;37380;45.186;9.792;2023-08-06T03:13:55;99944.88;;;19.54;100.00
51297;BME280;37380;45.186;9.792;2023-08-06T03:16:22;99942.25;;;19.54;100.00
51297;BME280;37380;45.186;9.792;2023-08-06T03:18:50;99941.38;;;19.54;100.00
51297;BME280;37380;45.186;9.792;2023-08-06T03:21:17;99945.06;;;19.42;100.00
51297;BME280;37380;45.186;9.792;2023-08-06T03:23:50;99931.22;;;19.21;100.00
51297;BME280;37380;45.186;9.792;2023-08-06T03:26:54;99936.81;;;18.97;100.00
51297;BME280;37380;45.186;9.792;2023-08-06T03:29:55;99937.06;;;18.72;100.00
51297;BME280;37380;45.186;9.792;2023-08-06T03:32:56;99933.69;;;18.58;100.00
51297;BME280;37380;45.186;9.792;2023-08-06T03:35:51;99931.06;;;18.55;100.00
51297;BME280;37380;45.186;9.792;2023-08-06T03:38:18;99940.66;;;18.68;100.00
51297;BME280;37380;45.186;9.792;2023-08-06T03:40:46;99925.59;;;18.76;100.00
51297;BME280;37380;45.186;9.792;2023-08-06T03:43:13;99924.72;;;18.71;100.00
51297;BME280;37380;45.186;9.792;2023-08-06T03:45:41;99917.69;;;18.70;100.00
51297;BME280;37380;45.186;9.792;2023-08-06T03:48:09;99921.22;;;18.74;100.00
51297;BME280;37380;45.186;9.792;2023-08-06T03:50:36;99923.00;;;18.73;100.00
51297;BME280;37380;45.186;9.792;2023-08-06T03:53:09;99917.66;;;18.76;100.00
51297;BME280;37380;45.186;9.792;2023-08-06T03:55:36;99914.09;;;18.77;100.00
51297;BME280;37380;45.186;9.792;2023-08-06T03:58:03;99914.97;;;18.78;100.00
51297;BME280;37380;45.186;9.792;2023-08-06T04:00:31;99909.72;;;18.75;100.00
51297;BME280;37380;45.186;9.792;2023-08-06T04:02:58;99892.97;;;18.71;100.00
51297;BME280;37380;45.186;9.792;2023-08-06T04:05:27;99881.53;;;18.71;100.00
51297;BME280;37380;45.186;9.792;2023-08-06T04:07:55;99881.50;;;18.74;100.00
51297;BME280;37380;45.186;9.792;2023-08-06T04:10:21;99886.81;;;18.74;100.00
51297;BME280;37380;45.186;9.792;2023-08-06T04:12:48;99894.72;;;18.72;100.00
51297;BME280;37380;45.186;9.792;2023-08-06T04:15:16;99886.81;;;18.69;100.00
51297;BME280;37380;45.186;9.792;2023-08-06T04:17:42;99894.91;;;18.57;100.00
51297;BME280;37380;45.186;9.792;2023-08-06T04:20:10;99901.06;;;18.58;100.00
51297;BME280;37380;45.186;9.792;2023-08-06T04:22:37;99908.19;;;18.49;100.00
51297;BME280;37380;45.186;9.792;2023-08-06T04:25:11;99910.03;;;18.43;100.00
51297;BME280;37380;45.186;9.792;2023-08-06T04:28:09;99912.69;;;18.44;100.00
51297;BME280;37380;45.186;9.792;2023-08-06T04:30:43;99916.13;;;18.51;100.00
51297;BME280;37380;45.186;9.792;2023-08-06T04:33:45;99933.56;;;18.67;100.00
51297;BME280;37380;45.186;9.792;2023-08-06T04:36:40;99938.22;;;18.44;100.00
51297;BME280;37380;45.186;9.792;2023-08-06T04:39:08;99932.53;;;18.88;100.00
51297;BME280;37380;45.186;9.792;2023-08-06T04:41:35;99942.19;;;18.89;100.00
51297;BME280;37380;45.186;9.792;2023-08-06T04:44:02;99947.00;;;19.29;100.00
51297;BME280;37380;45.186;9.792;2023-08-06T04:46:31;99954.94;;;19.31;100.00
51297;BME280;37380;45.186;9.792;2023-08-06T04:48:58;99951.63;;;19.80;100.00
51297;BME280;37380;45.186;9.792;2023-08-06T04:51:27;99956.53;;;19.42;100.00
51297;BME280;37380;45.186;9.792;2023-08-06T04:53:56;99963.13;;;19.79;100.00
51297;BME280;37380;45.186;9.792;2023-08-06T04:56:23;99964.97;;;20.29;100.00
51297;BME280;37380;45.186;9.792;2023-08-06T04:58:50;99975.13;;;20.04;100.00
51297;BME280;37380;45.186;9.792;2023-08-06T05:01:25;99984.00;;;20.00;100.00
51297;BME280;37380;45.186;9.792;2023-08-06T05:04:25;99982.03;;;20.15;100.00
51297;BME280;37380;45.186;9.792;2023-08-06T05:07:26;99974.25;;;21.05;100.00
51297;BME280;37380;45.186;9.792;2023-08-06T05:10:30;99979.00;;;20.87;100.00
51297;BME280;37380;45.186;9.792;2023-08-06T05:13:28;99961.91;;;21.02;100.00
51297;BME280;37380;45.186;9.792;2023-08-06T05:15:55;99962.97;;;21.77;100.00
51297;BME280;37380;45.186;9.792;2023-08-06T05:18:22;99957.69;;;21.35;100.00
51297;BME280;37380;45.186;9.792;2023-08-06T05:20:49;99954.00;;;21.83;100.00
51297;BME280;37380;45.186;9.792;2023-08-06T05:23:30;99955.94;;;22.82;100.00
51297;BME280;37380;45.186;9.792;2023-08-06T05:26:34;99957.59;;;23.78;100.00
51297;BME280;37380;45.186;9.792;2023-08-06T05:29:39;99961.22;;;23.46;100.00
51297;BME280;37380;45.186;9.792;2023-08-06T05:32:37;99954.63;;;24.15;100.00
51297;BME280;37380;45.186;9.792;2023-08-06T05:35:31;99958.59;;;24.29;100.00
51297;BME280;37380;45.186;9.792;2023-08-06T05:38:32;99962.44;;;23.93;100.00
51297;BME280;37380;45.186;9.792;2023-08-06T05:41:33;99963.34;;;23.94;100.00
51297;BME280;37380;45.186;9.792;2023-08-06T05:44:49;99962.59;;;23.59;100.00
51297;BME280;37380;45.186;9.792;2023-08-06T05:47:44;99962.69;;;23.86;100.00
51297;BME280;37380;45.186;9.792;2023-08-06T05:50:18;99959.44;;;24.31;98.38
51297;BME280;37380;45.186;9.792;2023-08-06T05:53:18;99956.03;;;24.79;96.67
51297;BME280;37380;45.186;9.792;2023-08-06T05:56:17;99952.41;;;25.97;84.02
51297;BME280;37380;45.186;9.792;2023-08-06T05:58:44;99958.06;;;26.97;77.31
51297;BME280;37380;45.186;9.792;2023-08-06T06:01:14;99949.81;;;25.96;82.74
51297;BME280;37380;45.186;9.792;2023-08-06T06:03:41;99963.19;;;24.52;91.79
51297;BME280;37380;45.186;9.792;2023-08-06T06:06:18;99964.88;;;24.54;94.64
51297;BME280;37380;45.186;9.792;2023-08-06T06:09:19;99961.91;;;25.84;84.84
51297;BME280;37380;45.186;9.792;2023-08-06T06:12:20;99962.25;;;27.23;78.75
51297;BME280;37380;45.186;9.792;2023-08-06T06:15:21;99967.84;;;26.57;83.13
51297;BME280;37380;45.186;9.792;2023-08-06T06:18:22;99964.59;;;26.90;76.02
51297;BME280;37380;45.186;9.792;2023-08-06T06:21:25;99961.47;;;26.37;76.62
51297;BME280;37380;45.186;9.792;2023-08-06T06:24:26;99975.16;;;24.92;87.31
51297;BME280;37380;45.186;9.792;2023-08-06T06:27:29;99980.16;;;25.26;86.17
51297;BME280;37380;45.186;9.792;2023-08-06T06:30:30;99974.34;;;26.92;78.07
51297;BME280;37380;45.186;9.792;2023-08-06T06:33:32;99972.22;;;27.59;76.77
51297;BME280;37380;45.186;9.792;2023-08-06T06:36:34;99975.78;;;28.51;69.73
51297;BME280;37380;45.186;9.792;2023-08-06T06:39:21;99982.06;;;27.58;72.25
51297;BME280;37380;45.186;9.792;2023-08-06T06:42:00;99974.00;;;27.39;74.89
51297;BME280;37380;45.186;9.792;2023-08-06T06:44:56;99965.78;;;27.82;78.27
51297;BME280;37380;45.186;9.792;2023-08-06T06:47:48;99970.13;;;28.20;70.72
51297;BME280;37380;45.186;9.792;2023-08-06T06:50:53;99975.03;;;27.74;70.08
51297;BME280;37380;45.186;9.792;2023-08-06T06:53:47;99968.00;;;27.91;70.41
51297;BME280;37380;45.186;9.792;2023-08-06T06:56:14;99972.22;;;28.67;64.57
51297;BME280;37380;45.186;9.792;2023-08-06T06:58:41;99967.84;;;29.00;69.43
51297;BME280;37380;45.186;9.792;2023-08-06T07:01:10;99975.72;;;29.04;66.03
51297;BME280;37380;45.186;9.792;2023-08-06T07:03:40;99977.28;;;29.58;59.90
51297;BME280;37380;45.186;9.792;2023-08-06T07:06:07;99973.03;;;28.52;65.01
51297;BME280;37380;45.186;9.792;2023-08-06T07:08:55;99973.66;;;29.09;62.13
51297;BME280;37380;45.186;9.792;2023-08-06T07:12:00;99975.94;;;28.82;60.45
51297;BME280;37380;45.186;9.792;2023-08-06T07:15:07;99957.06;;;28.49;61.97
51297;BME280;37380;45.186;9.792;2023-08-06T07:18:10;99948.25;;;28.98;60.01
51297;BME280;37380;45.186;9.792;2023-08-06T07:21:12;99948.81;;;29.04;59.05
51297;BME280;37380;45.186;9.792;2023-08-06T07:24:06;99953.34;;;28.69;59.93
51297;BME280;37380;45.186;9.792;2023-08-06T07:26:42;99962.56;;;28.98;56.84
51297;BME280;37380;45.186;9.792;2023-08-06T07:29:46;99963.16;;;27.99;58.07
51297;BME280;37380;45.186;9.792;2023-08-06T07:32:50;99956.25;;;28.82;59.86
51297;BME280;37380;45.186;9.792;2023-08-06T07:35:52;99958.22;;;29.29;55.02
51297;BME280;37380;45.186;9.792;2023-08-06T07:38:39;99957.34;;;27.70;57.90
51297;BME280;37380;45.186;9.792;2023-08-06T07:41:17;99961.97;;;27.29;58.13
51297;BME280;37380;45.186;9.792;2023-08-06T07:44:24;99957.44;;;28.76;57.53
51297;BME280;37380;45.186;9.792;2023-08-06T07:47:24;99957.72;;;28.18;60.68
51297;BME280;37380;45.186;9.792;2023-08-06T07:49:51;99961.69;;;29.15;53.91
51297;BME280;37380;45.186;9.792;2023-08-06T07:52:20;99955.50;;;26.94;57.08
51297;BME280;37380;45.186;9.792;2023-08-06T07:54:50;99942.75;;;26.99;56.09
51297;BME280;37380;45.186;9.792;2023-08-06T07:57:17;99963.00;;;27.83;53.52
51297;BME280;37380;45.186;9.792;2023-08-06T07:59:51;99964.38;;;27.15;58.09
51297;BME280;37380;45.186;9.792;2023-08-06T08:02:20;99960.44;;;28.70;58.55
51297;BME280;37380;45.186;9.792;2023-08-06T08:04:55;99951.06;;;26.09;57.33
51297;BME280;37380;45.186;9.792;2023-08-06T08:07:22;99957.25;;;26.54;56.02
51297;BME280;37380;45.186;9.792;2023-08-06T08:09:49;99964.59;;;27.49;56.81
51297;BME280;37380;45.186;9.792;2023-08-06T08:12:16;99968.25;;;26.89;56.70
51297;BME280;37380;45.186;9.792;2023-08-06T08:14:47;99974.59;;;27.46;56.60
51297;BME280;37380;45.186;9.792;2023-08-06T08:17:14;99984.63;;;28.87;51.39
51297;BME280;37380;45.186;9.792;2023-08-06T08:19:41;99978.38;;;27.42;54.64
51297;BME280;37380;45.186;9.792;2023-08-06T08:22:09;99972.38;;;27.16;55.34
51297;BME280;37380;45.186;9.792;2023-08-06T08:24:36;99965.72;;;28.37;55.03
51297;BME280;37380;45.186;9.792;2023-08-06T08:27:03;99955.53;;;29.78;54.38
51297;BME280;37380;45.186;9.792;2023-08-06T08:29:37;99970.75;;;29.46;54.70
51297;BME280;37380;45.186;9.792;2023-08-06T08:32:41;99953.06;;;29.08;47.84
51297;BME280;37380;45.186;9.792;2023-08-06T08:35:49;99962.06;;;28.74;48.32
51297;BME280;37380;45.186;9.792;2023-08-06T08:38:53;99966.09;;;28.48;48.22
51297;BME280;37380;45.186;9.792;2023-08-06T08:41:54;99967.94;;;28.29;48.53
51297;BME280;37380;45.186;9.792;2023-08-06T08:45:00;99967.34;;;27.67;49.39
51297;BME280;37380;45.186;9.792;2023-08-06T08:47:51;99973.59;;;27.67;51.55
51297;BME280;37380;45.186;9.792;2023-08-06T08:50:19;99980.38;;;27.37;47.86
51297;BME280;37380;45.186;9.792;2023-08-06T08:52:46;99975.59;;;27.24;49.39
51297;BME280;37380;45.186;9.792;2023-08-06T08:55:15;99972.56;;;27.70;51.47
51297;BME280;37380;45.186;9.792;2023-08-06T08:57:44;99961.13;;;26.87;49.45
51297;BME280;37380;45.186;9.792;2023-08-06T09:00:12;99972.88;;;26.85;53.39
51297;BME280;37380;45.186;9.792;2023-08-06T09:02:45;99972.75;;;26.88;51.90
51297;BME280;37380;45.186;9.792;2023-08-06T09:05:39;99974.31;;;26.51;50.70
51297;BME280;37380;45.186;9.792;2023-08-06T09:08:36;99958.63;;;26.42;52.77
51297;BME280;37380;45.186;9.792;2023-08-06T09:11:05;99964.59;;;26.90;50.79
51297;BME280;37380;45.186;9.792;2023-08-06T09:13:43;99963.78;;;27.08;51.28
51297;BME280;37380;45.186;9.792;2023-08-06T09:16:46;99959.38;;;27.65;47.24
51297;BME280;37380;45.186;9.792;2023-08-06T09:19:43;99971.97;;;26.84;49.98
51297;BME280;37380;45.186;9.792;2023-08-06T09:22:15;99971.66;;;26.92;47.83
51297;BME280;37380;45.186;9.792;2023-08-06T09:24:43;99976.41;;;26.85;49.16
51297;BME280;37380;45.186;9.792;2023-08-06T09:27:11;99981.22;;;27.18;52.23
51297;BME280;37380;45.186;9.792;2023-08-06T09:29:46;99982.31;;;26.94;50.28
51297;BME280;37380;45.186;9.792;2023-08-06T09:32:47;99981.31;;;28.11;44.86
51297;BME280;37380;45.186;9.792;2023-08-06T09:39:40;99965.13;;;28.66;43.01
51297;BME280;37380;45.186;9.792;2023-08-06T09:42:43;99980.59;;;28.44;44.51
51297;BME280;37380;45.186;9.792;2023-08-06T09:45:37;99983.72;;;28.71;47.96
51297;BME280;37380;45.186;9.792;2023-08-06T09:48:05;99982.59;;;28.58;43.84
51297;BME280;37380;45.186;9.792;2023-08-06T09:50:34;99979.91;;;29.10;42.49
51297;BME280;37380;45.186;9.792;2023-08-06T09:53:06;99991.19;;;28.82;42.26
51297;BME280;37380;45.186;9.792;2023-08-06T09:55:44;99970.81;;;28.43;39.73
51297;BME280;37380;45.186;9.792;2023-08-06T09:58:11;99985.13;;;28.07;42.58
51297;BME280;37380;45.186;9.792;2023-08-06T10:00:39;99982.16;;;27.75;43.16
51297;BME280;37380;45.186;9.792;2023-08-06T10:03:14;99977.28;;;28.03;44.20
51297;BME280;37380;45.186;9.792;2023-08-06T10:06:15;99977.94;;;27.89;44.26
51297;BME280;37380;45.186;9.792;2023-08-06T10:09:12;99979.09;;;27.83;44.61
51297;BME280;37380;45.186;9.792;2023-08-06T10:11:39;99981.19;;;28.32;43.65
51297;BME280;37380;45.186;9.792;2023-08-06T10:16:53;99979.00;;;28.40;41.91
51297;BME280;37380;45.186;9.792;2023-08-06T10:19:21;99982.63;;;28.39;41.38
51297;BME280;37380;45.186;9.792;2023-08-06T10:22:13;99975.50;;;28.38;40.71
51297;BME280;37380;45.186;9.792;2023-08-06T10:24:51;99980.78;;;28.58;42.08
51297;BME280;37380;45.186;9.792;2023-08-06T10:27:19;99975.16;;;28.09;42.63
51297;BME280;37380;45.186;9.792;2023-08-06T10:29:54;99977.53;;;28.86;42.52
51297;BME280;37380;45.186;9.792;2023-08-06T10:32:56;99987.66;;;29.32;40.71
51297;BME280;37380;45.186;9.792;2023-08-06T10:36:01;99988.13;;;29.73;41.28
51297;BME280;37380;45.186;9.792;2023-08-06T10:39:04;99983.63;;;28.55;38.25
51297;BME280;37380;45.186;9.792;2023-08-06T10:42:20;99990.88;;;28.53;41.03
51297;BME280;37380;45.186;9.792;2023-08-06T10:45:18;99985.28;;;28.21;41.33
51297;BME280;37380;45.186;9.792;2023-08-06T10:47:45;99996.34;;;28.86;40.93
51297;BME280;37380;45.186;9.792;2023-08-06T10:50:13;99992.28;;;29.30;41.29
51297;BME280;37380;45.186;9.792;2023-08-06T10:52:46;99996.84;;;28.77;41.23
51297;BME280;37380;45.186;9.792;2023-08-06T10:55:14;99989.63;;;28.60;40.05
51297;BME280;37380;45.186;9.792;2023-08-06T10:57:47;99992.31;;;28.43;39.13
51297;BME280;37380;45.186;9.792;2023-08-06T11:00:15;99993.34;;;28.58;40.57
51297;BME280;37380;45.186;9.792;2023-08-06T11:02:46;99987.88;;;28.42;41.02
51297;BME280;37380;45.186;9.792;2023-08-06T11:05:41;99979.59;;;28.81;40.79
51297;BME280;37380;45.186;9.792;2023-08-06T11:08:52;99979.63;;;28.28;36.87
51297;BME280;37380;45.186;9.792;2023-08-06T11:11:20;99988.84;;;28.58;39.08
51297;BME280;37380;45.186;9.792;2023-08-06T11:13:48;99977.59;;;29.69;37.85
51297;BME280;37380;45.186;9.792;2023-08-06T11:16:20;99987.66;;;29.81;36.33
51297;BME280;37380;45.186;9.792;2023-08-06T11:18:50;99979.63;;;28.97;36.63
51297;BME280;37380;45.186;9.792;2023-08-06T11:21:20;99973.25;;;28.48;35.69
51297;BME280;37380;45.186;9.792;2023-08-06T11:23:51;99978.69;;;28.98;37.54
51297;BME280;37380;45.186;9.792;2023-08-06T11:26:22;99967.09;;;29.31;34.88
51297;BME280;37380;45.186;9.792;2023-08-06T11:28:52;99976.22;;;29.77;33.60
51297;BME280;37380;45.186;9.792;2023-08-06T11:31:26;99968.81;;;29.32;33.72
51297;BME280;37380;45.186;9.792;2023-08-06T11:34:29;99971.44;;;29.33;32.37
51297;BME280;37380;45.186;9.792;2023-08-06T11:37:10;99969.22;;;29.08;33.63
51297;BME280;37380;45.186;9.792;2023-08-06T11:40:13;99970.25;;;29.55;31.88
51297;BME280;37380;45.186;9.792;2023-08-06T11:43:09;99962.97;;;28.91;31.72
51297;BME280;37380;45.186;9.792;2023-08-06T11:45:42;99974.41;;;29.61;30.35
51297;BME280;37380;45.186;9.792;2023-08-06T11:48:10;99963.34;;;29.98;30.12
51297;BME280;37380;45.186;9.792;2023-08-06T11:50:43;99960.47;;;30.01;29.48
51297;BME280;37380;45.186;9.792;2023-08-06T11:53:13;99955.09;;;30.48;31.17
51297;BME280;37380;45.186;9.792;2023-08-06T11:55:43;99913.78;;;30.17;28.92
51297;BME280;37380;45.186;9.792;2023-08-06T11:58:13;99958.75;;;30.00;27.97
51297;BME280;37380;45.186;9.792;2023-08-06T12:00:43;99953.03;;;30.37;35.53
51297;BME280;37380;45.186;9.792;2023-08-06T12:03:18;99945.94;;;30.20;26.63
51297;BME280;37380;45.186;9.792;2023-08-06T12:06:22;99949.09;;;30.42;30.96
51297;BME280;37380;45.186;9.792;2023-08-06T12:09:20;99947.53;;;30.68;31.45
51297;BME280;37380;45.186;9.792;2023-08-06T12:11:49;99947.34;;;30.27;30.90
51297;BME280;37380;45.186;9.792;2023-08-06T12:14:20;99944.47;;;29.98;29.06
51297;BME280;37380;45.186;9.792;2023-08-06T12:16:50;99946.47;;;30.11;26.38
51297;BME280;37380;45.186;9.792;2023-08-06T12:19:17;99944.69;;;30.41;30.27
51297;BME280;37380;45.186;9.792;2023-08-06T12:21:44;99944.69;;;30.41;30.71
51297;BME280;37380;45.186;9.792;2023-08-06T12:24:11;99948.13;;;29.82;25.58
51297;BME280;37380;45.186;9.792;2023-08-06T12:26:39;99938.56;;;30.23;25.60
51297;BME280;37380;45.186;9.792;2023-08-06T12:29:09;99930.19;;;29.82;25.33
51297;BME280;37380;45.186;9.792;2023-08-06T12:31:43;99924.41;;;29.56;26.25
51297;BME280;37380;45.186;9.792;2023-08-06T12:34:38;99924.94;;;29.95;30.26
51297;BME280;37380;45.186;9.792;2023-08-06T12:37:25;99928.56;;;30.10;29.55
51297;BME280;37380;45.186;9.792;2023-08-06T12:40:29;99943.19;;;29.90;29.63
51297;BME280;37380;45.186;9.792;2023-08-06T12:43:23;99926.16;;;30.05;28.77
51297;BME280;37380;45.186;9.792;2023-08-06T12:45:50;99935.34;;;30.17;29.59
51297;BME280;37380;45.186;9.792;2023-08-06T12:48:18;99939.97;;;30.45;30.25
51297;BME280;37380;45.186;9.792;2023-08-06T12:50:45;99939.22;;;30.57;27.12
51297;BME280;37380;45.186;9.792;2023-08-06T12:53:15;99938.94;;;30.48;28.70
51297;BME280;37380;45.186;9.792;2023-08-06T12:55:42;99933.44;;;29.87;24.16
51297;BME280;37380;45.186;9.792;2023-08-06T12:58:10;99928.41;;;29.81;25.16
51297;BME280;37380;45.186;9.792;2023-08-06T13:00:38;99928.13;;;30.01;28.61
51297;BME280;37380;45.186;9.792;2023-08-06T13:03:12;99935.28;;;30.03;29.42
51297;BME280;37380;45.186;9.792;2023-08-06T13:06:14;99938.56;;;30.08;28.76
51297;BME280;37380;45.186;9.792;2023-08-06T13:09:16;99932.94;;;29.96;27.86
51297;BME280;37380;45.186;9.792;2023-08-06T13:12:19;99940.47;;;30.21;27.46
51297;BME280;37380;45.186;9.792;2023-08-06T13:15:14;99935.88;;;29.60;23.78
51297;BME280;37380;45.186;9.792;2023-08-06T13:17:43;99940.06;;;29.97;22.90
51297;BME280;37380;45.186;9.792;2023-08-06T13:20:12;99949.78;;;30.00;24.95
51297;BME280;37380;45.186;9.792;2023-08-06T13:22:40;99937.44;;;29.96;24.88
51297;BME280;37380;45.186;9.792;2023-08-06T13:25:07;99924.22;;;30.07;22.92
51297;BME280;37380;45.186;9.792;2023-08-06T13:27:39;99941.22;;;29.93;24.47
51297;BME280;37380;45.186;9.792;2023-08-06T13:30:15;99932.22;;;30.25;24.47
51297;BME280;37380;45.186;9.792;2023-08-06T13:33:16;99928.31;;;30.14;28.61
51297;BME280;37380;45.186;9.792;2023-08-06T13:36:10;99923.66;;;29.86;23.07
51297;BME280;37380;45.186;9.792;2023-08-06T13:38:45;99928.06;;;29.87;23.45
51297;BME280;37380;45.186;9.792;2023-08-06T13:41:47;99922.25;;;29.95;24.21
51297;BME280;37380;45.186;9.792;2023-08-06T13:44:25;99916.84;;;30.11;24.39
51297;BME280;37380;45.186;9.792;2023-08-06T13:46:52;99928.38;;;30.13;24.74
51297;BME280;37380;45.186;9.792;2023-08-06T13:49:19;99920.78;;;29.89;23.75
51297;BME280;37380;45.186;9.792;2023-08-06T13:51:46;99916.63;;;29.68;24.56
51297;BME280;37380;45.186;9.792;2023-08-06T13:54:19;99907.41;;;29.88;24.77
51297;BME280;37380;45.186;9.792;2023-08-06T13:56:48;99912.72;;;29.73;26.96
51297;BME280;37380;45.186;9.792;2023-08-06T13:59:22;99913.09;;;29.18;22.95
51297;BME280;37380;45.186;9.792;2023-08-06T14:01:54;99906.94;;;29.32;22.93
51297;BME280;37380;45.186;9.792;2023-08-06T14:04:22;99904.09;;;29.51;23.71
51297;BME280;37380;45.186;9.792;2023-08-06T14:06:49;99905.66;;;29.55;24.16
51297;BME280;37380;45.186;9.792;2023-08-06T14:09:16;99906.56;;;29.71;24.44
51297;BME280;37380;45.186;9.792;2023-08-06T14:11:45;99898.03;;;29.79;23.63
51297;BME280;37380;45.186;9.792;2023-08-06T14:14:16;99906.94;;;29.95;23.05
51297;BME280;37380;45.186;9.792;2023-08-06T14:16:43;99903.72;;;30.05;23.10